Time;durP1;ratioP1;P1;durP2;ratioP2;P2;SDS_P1;SDS_P2;PMS_P1;PMS_P2;Temp;Humidity;BMP_temperature;BMP_pressure;BME280_temperature;BME280_humidity;BME280_pressure;Samples;Min_cycle;Max_cycle;Signal;HPM_P1;HPM_P2
2021/12/13 00:00:13;;;;;;;6.57;3.80;;;;;;;6.46;77.19;100967.22;1084279;54;20061;-80
2021/12/13 00:01:23;;;;;;;8.57;4.03;;;;;;;6.42;77.21;100967.50;1083869;54;20130;-78
2021/12/13 00:02:30;;;;;;;7.63;3.97;;;;;;;6.39;77.28;100964.06;1083485;54;20632;-78
2021/12/13 00:03:41;;;;;;;8.52;4.35;;;;;;;6.41;77.42;100969.28;1083796;54;20045;-79
2021/12/13 00:04:48;;;;;;;6.75;3.97;;;;;;;6.47;77.14;100971.53;1083770;54;20095;-80
2021/12/13 00:05:55;;;;;;;6.38;3.40;;;;;;;6.39;77.36;100974.69;1083963;54;20034;-79
2021/12/13 00:07:02;;;;;;;6.40;3.60;;;;;;;6.37;77.70;100973.94;1083879;54;20050;-80
2021/12/13 00:08:11;;;;;;;6.82;3.42;;;;;;;6.46;77.44;100979.63;1083847;54;20042;-78
2021/12/13 00:09:16;;;;;;;6.45;3.53;;;;;;;6.50;77.31;100975.84;1083945;54;20058;-80
2021/12/13 00:10:23;;;;;;;6.72;3.50;;;;;;;6.55;76.92;100968.41;1083457;54;20038;-78
2021/12/13 00:11:31;;;;;;;5.50;3.10;;;;;;;6.52;77.08;100979.22;1085136;31;20533;-78
2021/12/13 00:12:36;;;;;;;6.13;3.05;;;;;;;6.51;77.23;100982.88;1083722;54;20065;-79
2021/12/13 00:13:44;;;;;;;6.43;3.42;;;;;;;6.54;77.23;100983.53;1084026;54;20035;-79
2021/12/13 00:14:50;;;;;;;6.20;2.90;;;;;;;6.57;77.32;100974.50;1084484;54;20065;-80
2021/12/13 00:15:58;;;;;;;7.70;3.13;;;;;;;6.61;77.26;100973.38;1083772;54;20076;-79
2021/12/13 00:17:08;;;;;;;5.25;2.92;;;;;;;6.63;77.03;100970.59;1083381;54;20562;-79
2021/12/13 00:18:19;;;;;;;6.80;3.15;;;;;;;6.65;77.07;100974.03;1083608;54;20065;-79
2021/12/13 00:19:24;;;;;;;5.60;2.80;;;;;;;6.67;76.94;100972.09;1083569;54;20115;-78
2021/12/13 00:20:37;;;;;;;6.22;2.85;;;;;;;6.65;76.96;100971.38;1083209;39;20419;-79
2021/12/13 00:21:41;;;;;;;5.35;3.08;;;;;;;6.67;77.20;100967.66;1083482;54;20069;-79
2021/12/13 00:22:49;;;;;;;6.53;3.72;;;;;;;6.67;76.95;100965.00;1083772;39;20453;-78
2021/12/13 00:24:00;;;;;;;6.00;3.22;;;;;;;6.68;77.10;100973.81;1083071;54;20046;-79
2021/12/13 00:25:06;;;;;;;6.07;3.65;;;;;;;6.61;77.27;100965.41;1083188;54;20070;-79
2021/12/13 00:26:11;;;;;;;6.25;3.15;;;;;;;6.59;77.26;100969.94;1083304;54;20071;-79
2021/12/13 00:27:15;;;;;;;7.10;3.70;;;;;;;6.61;77.40;100967.19;1083143;54;20099;-79
2021/12/13 00:28:22;;;;;;;6.25;3.03;;;;;;;6.62;77.45;100966.25;1083387;54;20038;-78
2021/12/13 00:29:33;;;;;;;4.78;2.50;;;;;;;6.65;77.36;100966.06;1083215;54;20054;-78
2021/12/13 00:30:46;;;;;;;5.50;2.97;;;;;;;6.65;77.28;100966.91;1083694;47;20051;-79
2021/12/13 00:32:00;;;;;;;5.38;2.70;;;;;;;6.65;77.49;100969.56;1083290;54;20173;-78
2021/12/13 00:33:27;;;;;;;4.88;2.53;;;;;;;6.67;77.71;100966.78;1083320;54;20038;-78
2021/12/13 00:34:36;;;;;;;7.53;2.58;;;;;;;6.64;77.80;100961.69;1083289;54;20038;-78
2021/12/13 00:35:42;;;;;;;4.97;2.83;;;;;;;6.65;77.73;100969.56;1083576;39;20831;-78
2021/12/13 00:36:50;;;;;;;5.90;3.10;;;;;;;6.62;77.97;100959.09;1083153;54;20068;-78
2021/12/13 00:37:57;;;;;;;5.32;2.67;;;;;;;6.64;78.14;100972.31;1085137;31;20559;-78
2021/12/13 00:39:11;;;;;;;6.65;3.72;;;;;;;6.44;78.68;100962.91;1083268;47;20985;-78
2021/12/13 00:40:18;;;;;;;8.57;3.50;;;;;;;6.29;79.44;100968.25;1083359;54;20093;-79
2021/12/13 00:41:26;;;;;;;8.27;3.90;;;;;;;6.21;79.74;100962.56;1083291;54;20065;-78
2021/12/13 00:42:36;;;;;;;6.90;3.50;;;;;;;6.31;79.61;100965.50;1083304;54;20042;-78
2021/12/13 00:43:43;;;;;;;7.78;3.90;;;;;;;6.12;80.71;100966.63;1083121;54;20054;-78
2021/12/13 00:44:51;;;;;;;8.52;4.32;;;;;;;6.07;80.87;100964.25;1083138;54;20039;-78
2021/12/13 00:45:55;;;;;;;8.25;3.95;;;;;;;6.05;80.75;100970.59;1082856;54;20137;-79
2021/12/13 00:47:07;;;;;;;9.02;4.38;;;;;;;6.00;81.39;100975.34;1083256;54;20038;-78
2021/12/13 00:48:09;;;;;;;7.43;3.67;;;;;;;6.12;80.93;100971.09;1083825;54;20084;-79
2021/12/13 00:49:16;;;;;;;7.00;4.15;;;;;;;6.13;80.88;100970.97;1084052;54;20045;-79
2021/12/13 00:50:22;;;;;;;7.07;3.55;;;;;;;6.11;81.00;100974.69;1084026;54;20065;-78
2021/12/13 00:51:29;;;;;;;7.05;3.45;;;;;;;6.16;80.79;100972.59;1083960;54;20042;-80
2021/12/13 00:52:34;;;;;;;6.65;3.47;;;;;;;6.19;80.80;100977.72;1083868;54;20062;-79
2021/12/13 00:53:42;;;;;;;8.90;4.25;;;;;;;5.93;82.12;100980.13;1083874;54;20054;-78
2021/12/13 00:54:49;;;;;;;7.90;4.38;;;;;;;5.90;82.19;100982.97;1083961;54;20038;-79
2021/12/13 00:55:51;;;;;;;8.90;4.43;;;;;;;5.87;82.21;100981.34;1084717;54;20042;-79
2021/12/13 00:57:17;;;;;;;6.90;3.90;;;;;;;6.04;82.19;100982.16;1084066;54;20039;-79
2021/12/13 00:58:24;;;;;;;7.15;3.78;;;;;;;6.15;81.18;100977.06;1083893;54;20073;-79
2021/12/13 00:59:29;;;;;;;8.15;4.07;;;;;;;6.17;81.23;100976.94;1083928;54;20118;-79
2021/12/13 01:00:37;;;;;;;6.95;3.90;;;;;;;6.23;80.82;100973.94;1084231;54;20046;-79
2021/12/13 01:01:40;;;;;;;6.65;3.50;;;;;;;6.30;80.45;100980.59;1083999;54;20038;-79
2021/12/13 01:02:47;;;;;;;6.70;3.20;;;;;;;6.35;80.51;100975.00;1083946;54;20046;-80
2021/12/13 01:03:51;;;;;;;6.00;3.08;;;;;;;6.36;80.21;100980.19;1084033;46;20046;-79
2021/12/13 01:05:06;;;;;;;7.28;3.67;;;;;;;6.37;80.56;100981.91;1083709;54;20048;-79
2021/12/13 01:07:00;;;;;;;9.27;3.53;;;;;;;6.36;80.75;100980.19;1084549;39;20564;-79
2021/12/13 01:08:14;;;;;;;6.03;3.60;;;;;;;6.38;80.38;100985.41;1083839;54;20050;-80
2021/12/13 01:10:11;;;;;;;8.05;3.63;;;;;;;6.35;80.57;100981.13;1084431;39;20517;-78
2021/12/13 01:11:33;;;;;;;7.15;3.38;;;;;;;6.34;80.21;100976.78;1083254;54;20175;-80
2021/12/13 01:12:36;;;;;;;8.18;3.88;;;;;;;6.37;80.11;100976.59;1083216;54;20066;-78
2021/12/13 01:13:50;;;;;;;9.15;4.07;;;;;;;6.39;80.24;100979.16;1083248;54;20042;-79
2021/12/13 01:14:58;;;;;;;6.78;3.58;;;;;;;6.40;80.18;100976.41;1084094;31;20563;-79
2021/12/13 01:16:16;;;;;;;6.30;3.50;;;;;;;6.39;80.08;100977.34;1083940;47;20780;-79
2021/12/13 01:17:29;;;;;;;5.88;3.75;;;;;;;6.40;79.83;100975.53;1084282;31;20479;-80
2021/12/13 01:18:56;;;;;;;6.03;3.50;;;;;;;6.43;80.01;100979.81;1083249;54;20106;-78
2021/12/13 01:20:12;;;;;;;6.32;3.50;;;;;;;6.45;79.76;100972.59;1083389;54;20042;-79
2021/12/13 01:21:28;;;;;;;7.47;3.70;;;;;;;6.44;79.86;100971.75;1083711;46;20034;-80
2021/12/13 01:22:47;;;;;;;7.45;4.07;;;;;;;6.47;79.79;100976.03;1084107;54;20069;-78
2021/12/13 01:23:53;;;;;;;6.47;3.55;;;;;;;6.47;79.87;100974.19;1084434;54;20045;-80
2021/12/13 01:25:20;;;;;;;6.57;3.60;;;;;;;6.51;79.62;100972.25;1083907;54;20034;-78
2021/12/13 01:26:38;;;;;;;6.07;3.50;;;;;;;6.50;79.89;100981.16;1084022;54;20073;-79
2021/12/13 01:27:42;;;;;;;6.75;3.55;;;;;;;6.50;79.70;100975.84;1084040;54;20042;-78
2021/12/13 01:28:50;;;;;;;5.93;3.40;;;;;;;6.53;79.64;100978.28;1084074;54;20053;-79
2021/12/13 01:29:52;;;;;;;6.03;3.63;;;;;;;6.53;79.16;100975.63;1084117;54;20085;-79
2021/12/13 01:31:00;;;;;;;8.88;4.00;;;;;;;6.56;79.32;100975.44;1084123;54;20059;-81
2021/12/13 01:32:06;;;;;;;6.57;3.33;;;;;;;6.57;79.46;100982.47;1084125;54;20046;-80
2021/12/13 01:33:15;;;;;;;6.95;3.80;;;;;;;6.59;79.59;100974.41;1083742;54;20063;-79
2021/12/13 01:34:18;;;;;;;7.35;3.60;;;;;;;6.60;79.59;100986.72;1083770;46;20043;-79
2021/12/13 01:35:26;;;;;;;6.70;3.33;;;;;;;6.62;79.39;100980.38;1083727;54;20046;-79
2021/12/13 01:36:38;;;;;;;5.60;3.08;;;;;;;6.63;79.21;100982.06;1083804;54;20073;-79
2021/12/13 01:37:41;;;;;;;5.70;3.63;;;;;;;6.62;79.02;100982.19;1084109;54;20110;-80
2021/12/13 01:38:50;;;;;;;6.50;3.50;;;;;;;6.61;79.04;100978.69;1084416;54;20042;-79
2021/12/13 01:39:53;;;;;;;7.80;4.40;;;;;;;6.54;79.55;100982.66;1084022;54;20069;-78
2021/12/13 01:40:57;;;;;;;9.05;4.47;;;;;;;6.56;79.11;100986.06;1083669;54;20063;-79
2021/12/13 01:42:06;;;;;;;6.95;4.03;;;;;;;6.58;79.13;100978.88;1084231;54;20069;-79
2021/12/13 01:43:13;;;;;;;8.10;4.43;;;;;;;6.59;78.95;100983.22;1084332;54;20038;-79
2021/12/13 01:44:19;;;;;;;8.13;4.60;;;;;;;6.60;79.25;100987.59;1085995;39;20426;-80
2021/12/13 01:45:23;;;;;;;7.65;3.80;;;;;;;6.63;79.28;100989.22;1084506;54;20129;-80
2021/12/13 01:46:28;;;;;;;7.53;4.28;;;;;;;6.61;79.28;100984.00;1083376;54;20076;-79
2021/12/13 01:47:36;;;;;;;6.90;4.00;;;;;;;6.63;78.86;100982.06;1083621;54;20069;-78
2021/12/13 01:48:43;;;;;;;8.75;4.53;;;;;;;6.64;79.18;100972.31;1083690;54;20057;-79
2021/12/13 01:49:47;;;;;;;6.32;4.00;;;;;;;6.64;78.89;100981.13;1083850;54;20573;-79
2021/12/13 01:51:04;;;;;;;8.60;4.03;;;;;;;6.65;78.67;100979.34;1084141;39;23227;-79
2021/12/13 01:52:17;;;;;;;6.97;3.83;;;;;;;6.67;78.82;100983.59;1083443;54;20044;-79
2021/12/13 01:53:30;;;;;;;6.85;4.53;;;;;;;6.65;78.88;100985.50;1083664;54;20046;-80
2021/12/13 01:54:34;;;;;;;8.20;4.68;;;;;;;6.69;78.47;100986.16;1083430;54;20615;-79
2021/12/13 01:55:40;;;;;;;7.45;4.75;;;;;;;6.67;78.59;100980.06;1083504;54;20879;-78
2021/12/13 01:56:54;;;;;;;6.65;4.30;;;;;;;6.65;78.58;100979.34;1083570;46;20060;-78
2021/12/13 01:58:19;;;;;;;7.70;4.60;;;;;;;6.64;78.98;100977.63;1084101;54;20034;-79
2021/12/13 02:02:18;;;;;;;6.93;4.70;;;;;;;6.65;78.57;100969.56;1083399;54;20038;-77
2021/12/13 02:03:22;;;;;;;9.38;4.47;;;;;;;6.65;78.44;100980.19;1083583;54;20042;-78
2021/12/13 02:04:26;;;;;;;6.65;4.00;;;;;;;6.67;78.61;100972.97;1083698;54;22208;-79
2021/12/13 02:05:31;;;;;;;8.52;5.03;;;;;;;6.68;78.73;100973.81;1083548;54;20133;-79
2021/12/13 02:06:43;;;;;;;6.50;3.78;;;;;;;6.68;78.37;100974.69;1083815;54;20039;-79
2021/12/13 02:07:47;;;;;;;7.32;4.50;;;;;;;6.67;78.42;100974.75;1084028;54;20038;-79
2021/12/13 02:08:56;;;;;;;9.15;4.97;;;;;;;6.67;78.31;100969.44;1084195;54;20063;-79
2021/12/13 02:10:01;;;;;;;7.25;4.32;;;;;;;6.68;78.33;100971.16;1083860;54;20050;-78
2021/12/13 02:11:06;;;;;;;8.02;4.90;;;;;;;6.67;78.48;100966.78;1083985;54;20042;-79
2021/12/13 02:12:14;;;;;;;8.15;5.13;;;;;;;6.67;78.52;100962.34;1083886;54;20034;-79
2021/12/13 02:13:22;;;;;;;8.30;4.55;;;;;;;6.71;78.47;100963.00;1083539;54;20038;-78
2021/12/13 02:14:32;;;;;;;6.88;4.15;;;;;;;6.75;78.28;100968.97;1083710;54;20133;-79
2021/12/13 02:17:01;;;;;;;8.15;5.10;;;;;;;6.74;78.26;100962.81;1084246;39;20465;-79
2021/12/13 02:18:03;;;;;;;6.53;4.00;;;;;;;6.77;78.21;100962.59;1084278;39;20722;-79
2021/12/13 02:19:07;;;;;;;7.63;4.57;;;;;;;6.80;77.98;100961.56;1083754;54;20030;-79
2021/12/13 02:20:15;;;;;;;6.47;3.90;;;;;;;6.82;78.20;100964.97;1084364;54;20038;-78
2021/12/13 02:21:25;;;;;;;6.90;4.43;;;;;;;6.84;77.79;100965.72;1083991;54;20042;-79
2021/12/13 02:22:38;;;;;;;6.00;3.75;;;;;;;6.82;77.92;100964.97;1084783;39;20735;-79
2021/12/13 02:23:44;;;;;;;6.60;3.95;;;;;;;6.86;77.91;100971.81;1083714;54;20050;-79
2021/12/13 02:24:49;;;;;;;6.22;4.13;;;;;;;6.86;78.02;100962.00;1083780;54;20034;-79
2021/12/13 02:25:57;;;;;;;6.35;4.07;;;;;;;6.90;77.87;100969.78;1083804;54;20711;-79
2021/12/13 02:26:59;;;;;;;5.68;3.63;;;;;;;6.91;77.75;100966.19;1083651;54;20030;-79
2021/12/13 02:28:09;;;;;;;5.93;3.42;;;;;;;6.93;77.47;100966.94;1083976;54;20066;-78
2021/12/13 02:29:17;;;;;;;6.35;3.25;;;;;;;6.86;77.57;100969.16;1083917;54;20588;-79
2021/12/13 02:30:30;;;;;;;7.35;3.88;;;;;;;6.84;77.80;100971.91;1084003;54;20052;-78
2021/12/13 02:31:35;;;;;;;8.10;4.85;;;;;;;6.75;78.15;100974.28;1084062;54;20050;-79
2021/12/13 02:32:41;;;;;;;9.48;5.03;;;;;;;6.68;78.50;100980.00;1083867;54;20038;-80
2021/12/13 02:33:48;;;;;;;9.35;4.75;;;;;;;6.67;78.56;100983.59;1084381;54;20050;-79
2021/12/13 02:34:53;;;;;;;10.45;5.47;;;;;;;6.69;78.65;100987.03;1083753;39;21071;-78
2021/12/13 02:36:02;;;;;;;6.97;4.70;;;;;;;6.68;78.62;100977.34;1083249;54;20072;-78
2021/12/13 02:37:06;;;;;;;9.88;5.47;;;;;;;6.67;78.78;100977.41;1083550;54;20050;-78
2021/12/13 02:38:15;;;;;;;7.70;4.78;;;;;;;6.77;78.28;100991.84;1083781;54;20057;-78
2021/12/13 02:39:19;;;;;;;10.35;4.70;;;;;;;6.78;78.27;100990.03;1083336;54;20133;-79
2021/12/13 02:40:24;;;;;;;8.10;5.15;;;;;;;6.75;78.59;100991.09;1084239;46;20094;-79
2021/12/13 02:41:29;;;;;;;8.30;5.40;;;;;;;6.79;78.34;100991.75;1083886;54;20065;-80
2021/12/13 02:42:34;;;;;;;9.45;5.63;;;;;;;6.66;78.79;100989.03;1083933;54;20137;-79
2021/12/13 02:43:41;;;;;;;14.27;6.03;;;;;;;6.60;78.99;100984.94;1084228;54;20042;-79
2021/12/13 02:44:48;;;;;;;10.38;5.90;;;;;;;6.69;79.22;100988.81;1084000;54;20038;-79
2021/12/13 02:45:56;;;;;;;7.85;5.38;;;;;;;6.74;78.96;100993.84;1084430;39;21559;-79
2021/12/13 02:47:03;;;;;;;10.60;5.88;;;;;;;6.69;78.72;100994.13;1084054;54;20050;-79
2021/12/13 02:48:12;;;;;;;8.55;5.47;;;;;;;6.66;78.92;100991.69;1083600;54;20042;-78
2021/12/13 02:49:16;;;;;;;10.82;5.45;;;;;;;6.60;79.31;100994.69;1084362;54;20038;-79
2021/12/13 02:50:26;;;;;;;9.35;5.85;;;;;;;6.59;79.36;100985.88;1084563;54;20034;-80
2021/12/13 02:51:34;;;;;;;9.93;5.80;;;;;;;6.59;79.58;100985.03;1087152;39;20620;-78
2021/12/13 02:52:38;;;;;;;8.35;5.75;;;;;;;6.70;78.97;100985.22;1084708;39;20587;-78
2021/12/13 02:53:52;;;;;;;7.80;4.65;;;;;;;6.77;78.72;100983.84;1085294;54;20165;-80
2021/12/13 02:54:58;;;;;;;8.57;5.07;;;;;;;6.84;78.81;100989.66;1084572;54;20046;-79
2021/12/13 02:56:03;;;;;;;8.52;4.70;;;;;;;6.86;78.50;100987.75;1084902;54;20038;-80
2021/12/13 02:57:08;;;;;;;8.50;5.10;;;;;;;6.79;78.56;100987.28;1084700;54;20042;-80
2021/12/13 02:58:16;;;;;;;8.25;5.10;;;;;;;6.72;78.79;100989.47;1085207;54;20059;-78
2021/12/13 02:59:21;;;;;;;8.80;5.55;;;;;;;6.71;78.92;100992.22;1085454;46;20031;-79
2021/12/13 03:00:29;;;;;;;9.52;5.63;;;;;;;6.80;78.65;100996.13;1085042;54;20061;-80
2021/12/13 03:01:37;;;;;;;9.32;5.57;;;;;;;6.64;79.05;100997.06;1086090;54;20042;-79
2021/12/13 03:02:44;;;;;;;11.10;6.60;;;;;;;6.57;79.56;100998.41;1086671;54;20034;-79
2021/12/13 03:03:51;;;;;;;8.65;6.32;;;;;;;6.57;79.24;101001.06;1087602;54;20039;-80
2021/12/13 03:04:53;;;;;;;8.95;5.72;;;;;;;6.58;79.33;100994.81;1086461;54;20069;-80
2021/12/13 03:06:01;;;;;;;8.70;5.50;;;;;;;6.50;79.35;100992.63;1087248;39;20446;-80
2021/12/13 03:07:09;;;;;;;11.27;6.47;;;;;;;6.47;79.39;100998.09;1085482;54;20065;-80
2021/12/13 03:08:18;;;;;;;9.60;5.93;;;;;;;6.65;79.10;101001.44;1085348;54;20877;-79
2021/12/13 03:09:25;;;;;;;8.75;6.20;;;;;;;6.55;79.40;101010.94;1085309;54;20064;-80
2021/12/13 03:10:33;;;;;;;10.15;6.07;;;;;;;6.60;79.02;101000.00;1085685;39;20460;-80
2021/12/13 03:11:35;;;;;;;10.25;6.35;;;;;;;6.65;79.13;101004.09;1085203;54;20126;-80
2021/12/13 03:12:40;;;;;;;8.85;6.65;;;;;;;6.68;78.77;101006.56;1085317;54;20039;-80
2021/12/13 03:13:44;;;;;;;11.27;7.00;;;;;;;6.56;79.49;100997.53;1085753;39;21298;-80
2021/12/13 03:14:49;;;;;;;9.73;6.47;;;;;;;6.58;79.59;101004.56;1085730;54;20050;-80
2021/12/13 03:16:01;;;;;;;9.73;6.88;;;;;;;6.47;79.60;101010.56;1085658;54;21060;-80
2021/12/13 03:17:07;;;;;;;10.52;6.65;;;;;;;6.49;79.94;101012.16;1085719;54;20046;-81
2021/12/13 03:18:18;;;;;;;10.48;7.68;;;;;;;6.51;79.52;101012.09;1086196;54;20141;-80
2021/12/13 03:19:30;;;;;;;10.50;6.70;;;;;;;6.50;79.87;101008.56;1086140;54;20035;-80
2021/12/13 03:20:58;;;;;;;10.13;7.38;;;;;;;6.59;79.73;101016.91;1086205;54;20046;-80
2021/12/13 03:22:17;;;;;;;10.70;6.97;;;;;;;6.57;79.65;101011.69;1085755;39;20532;-80
2021/12/13 03:23:33;;;;;;;8.52;6.07;;;;;;;6.69;79.17;101024.22;1086409;54;20038;-81
2021/12/13 03:24:52;;;;;;;7.90;5.72;;;;;;;6.74;78.85;101009.78;1086223;39;20605;-80
2021/12/13 03:26:30;;;;;;;9.80;6.10;;;;;;;6.72;79.10;101012.53;1086908;54;20015;-80
2021/12/13 03:27:51;;;;;;;8.80;5.50;;;;;;;6.68;79.11;101005.69;1086305;54;20034;-80
2021/12/13 03:29:19;;;;;;;7.88;5.68;;;;;;;6.70;79.34;101012.66;1086871;54;20054;-82
2021/12/13 03:30:27;;;;;;;9.30;6.07;;;;;;;6.72;78.96;101007.22;1086929;54;20034;-81
2021/12/13 03:31:34;;;;;;;8.50;5.40;;;;;;;6.78;78.61;101006.00;1087082;54;20603;-81
2021/12/13 03:32:42;;;;;;;7.45;5.47;;;;;;;6.83;78.94;100999.44;1086654;54;20064;-80
2021/12/13 03:33:53;;;;;;;7.95;5.70;;;;;;;6.89;78.69;101003.50;1086965;54;20038;-81
2021/12/13 03:35:05;;;;;;;7.95;5.10;;;;;;;6.87;78.38;101010.72;1086836;54;20043;-81
2021/12/13 03:36:15;;;;;;;7.93;5.45;;;;;;;6.83;78.82;101001.22;1086953;54;20042;-81
2021/12/13 03:37:21;;;;;;;8.68;5.68;;;;;;;6.87;78.76;101010.72;1087560;54;20038;-80
2021/12/13 03:38:28;;;;;;;9.45;6.00;;;;;;;6.91;78.47;101009.56;1087332;54;20046;-82
2021/12/13 03:39:35;;;;;;;8.05;5.30;;;;;;;6.92;78.43;101005.13;1086422;54;20043;-82
2021/12/13 03:40:42;;;;;;;7.35;5.38;;;;;;;6.91;78.73;101004.25;1086500;54;20031;-80
2021/12/13 03:41:47;;;;;;;9.80;5.90;;;;;;;6.93;78.62;101002.34;1086651;54;20110;-81
2021/12/13 03:42:56;;;;;;;9.32;6.20;;;;;;;6.92;78.42;101003.31;1086912;54;20042;-80
2021/12/13 03:44:10;;;;;;;8.43;5.68;;;;;;;6.92;78.47;101007.78;1087161;54;20304;-81
2021/12/13 03:45:18;;;;;;;7.15;5.07;;;;;;;6.92;78.44;101005.97;1088164;46;20570;-80
2021/12/13 03:46:23;;;;;;;9.02;6.13;;;;;;;6.93;78.55;101007.66;1087265;54;20038;-81
2021/12/13 03:47:33;;;;;;;10.02;6.68;;;;;;;6.88;78.55;101012.44;1086868;54;20055;-82
2021/12/13 03:48:39;;;;;;;9.07;6.82;;;;;;;6.78;78.85;101009.50;1089164;46;20580;-82
2021/12/13 03:49:46;;;;;;;8.80;6.47;;;;;;;6.86;78.71;101004.53;1087671;54;20022;-82
2021/12/13 03:50:54;;;;;;;10.00;7.43;;;;;;;6.74;79.04;101004.47;1087612;54;20091;-81
2021/12/13 03:51:58;;;;;;;9.27;6.80;;;;;;;6.80;78.90;101006.75;1087461;54;20666;-81
2021/12/13 03:53:06;;;;;;;8.65;6.57;;;;;;;6.73;78.98;101014.25;1086930;54;20606;-80
2021/12/13 03:54:13;;;;;;;9.70;7.70;;;;;;;6.74;79.37;101012.44;1087157;54;20039;-81
2021/12/13 03:55:22;;;;;;;11.40;8.40;;;;;;;6.65;79.50;101009.41;1087152;54;20063;-80
2021/12/13 03:56:29;;;;;;;10.07;7.30;;;;;;;6.60;79.87;101008.00;1086927;54;20046;-80
2021/12/13 03:57:34;;;;;;;10.43;7.47;;;;;;;6.54;79.85;101009.22;1087093;54;20042;-81
2021/12/13 03:58:42;;;;;;;11.43;8.48;;;;;;;6.56;79.89;101007.31;1087354;54;20035;-81
2021/12/13 03:59:48;;;;;;;11.93;8.23;;;;;;;6.54;79.92;101009.22;1087580;39;20525;-80
2021/12/13 04:00:53;;;;;;;10.82;7.88;;;;;;;6.57;79.91;101014.34;1087326;46;20035;-82
2021/12/13 04:02:02;;;;;;;10.55;7.90;;;;;;;6.54;80.14;101011.88;1086705;54;20038;-82
2021/12/13 04:03:07;;;;;;;10.68;7.75;;;;;;;6.50;79.88;101008.56;1087269;54;20026;-80
2021/12/13 04:04:15;;;;;;;13.52;7.97;;;;;;;6.55;79.97;101013.59;1087172;54;20069;-81
2021/12/13 04:05:23;;;;;;;11.20;7.82;;;;;;;6.55;79.83;101005.63;1087161;54;20034;-81
2021/12/13 04:06:24;;;;;;;9.93;7.60;;;;;;;6.58;79.95;101010.75;1089478;39;20489;-82
2021/12/13 04:07:31;;;;;;;9.63;6.70;;;;;;;6.69;79.60;101002.09;1087558;31;20556;-80
2021/12/13 04:08:34;;;;;;;8.73;6.45;;;;;;;6.75;79.48;101009.72;1087137;54;20034;-81
2021/12/13 04:09:38;;;;;;;8.57;6.35;;;;;;;6.84;79.15;101005.59;1088278;39;20895;-81
2021/12/13 04:10:45;;;;;;;8.45;6.22;;;;;;;6.85;79.08;101009.97;1089036;39;20695;-80
2021/12/13 04:11:57;;;;;;;11.30;6.60;;;;;;;6.81;78.95;101006.66;1086991;54;20038;-81
2021/12/13 04:13:10;;;;;;;9.88;7.45;;;;;;;6.71;79.23;101009.00;1087012;54;20091;-81
2021/12/13 04:14:22;;;;;;;10.23;7.63;;;;;;;6.72;79.45;101016.03;1087070;54;20106;-81
2021/12/13 04:15:46;;;;;;;10.35;6.97;;;;;;;6.65;79.82;101005.91;1087180;54;20042;-81
2021/12/13 04:17:04;;;;;;;12.48;8.30;;;;;;;6.63;79.88;101013.13;1087088;54;20060;-82
2021/12/13 04:18:14;;;;;;;11.20;8.52;;;;;;;6.59;79.79;101009.81;1087170;54;20042;-80
2021/12/13 04:19:21;;;;;;;10.93;8.30;;;;;;;6.58;80.03;101017.84;1087109;54;20051;-79
2021/12/13 04:20:26;;;;;;;11.43;8.07;;;;;;;6.57;79.98;101006.38;1086879;54;20053;-81
2021/12/13 04:21:43;;;;;;;10.18;7.93;;;;;;;6.60;80.08;101013.31;1089137;39;22512;-81
2021/12/13 04:22:51;;;;;;;11.73;7.97;;;;;;;6.55;79.90;101013.59;1086658;54;20065;-81
2021/12/13 04:23:56;;;;;;;13.00;9.05;;;;;;;6.54;80.08;101012.75;1087129;54;20049;-80
2021/12/13 04:25:03;;;;;;;11.35;8.45;;;;;;;6.54;80.12;101007.44;1087211;54;20038;-81
2021/12/13 04:26:08;;;;;;;14.57;9.70;;;;;;;6.44;80.52;101008.94;1087461;54;20038;-81
2021/12/13 04:27:21;;;;;;;10.60;8.32;;;;;;;6.45;80.56;101005.34;1087339;54;20034;-81
2021/12/13 04:28:25;;;;;;;12.07;8.32;;;;;;;6.47;80.44;101005.25;1087114;54;20038;-82
2021/12/13 04:29:34;;;;;;;11.32;8.18;;;;;;;6.48;80.56;101002.47;1087138;54;20053;-81
2021/12/13 04:30:41;;;;;;;12.95;8.38;;;;;;;6.49;80.52;101001.53;1086997;54;20042;-80
2021/12/13 04:31:44;;;;;;;11.60;8.98;;;;;;;6.45;80.55;101001.81;1086828;54;20964;-80
2021/12/13 04:32:57;;;;;;;11.25;8.45;;;;;;;6.53;80.65;101003.06;1087136;54;20039;-79
2021/12/13 04:34:02;;;;;;;12.55;8.02;;;;;;;6.67;80.13;100999.53;1087054;54;20589;-79
2021/12/13 04:35:11;;;;;;;11.65;7.18;;;;;;;6.72;79.90;101005.41;1089215;39;20771;-80
2021/12/13 04:36:18;;;;;;;11.65;8.00;;;;;;;6.69;79.57;101007.41;1087894;46;20041;-80
2021/12/13 04:37:23;;;;;;;9.50;7.25;;;;;;;6.70;79.83;101010.00;1087517;46;20057;-80
2021/12/13 04:38:39;;;;;;;11.52;8.48;;;;;;;6.61;80.27;101010.56;1087187;54;20042;-81
2021/12/13 04:39:43;;;;;;;11.30;9.00;;;;;;;6.62;80.30;101006.94;1088316;46;20849;-81
2021/12/13 04:40:47;;;;;;;11.43;9.10;;;;;;;6.62;80.12;101001.63;1086912;54;20035;-81
2021/12/13 04:41:53;;;;;;;10.98;7.80;;;;;;;6.72;80.17;101001.91;1086873;54;20026;-81
2021/12/13 04:43:04;;;;;;;10.27;7.30;;;;;;;6.81;80.01;101003.13;1086944;54;20045;-80
2021/12/13 04:44:10;;;;;;;12.18;7.90;;;;;;;6.72;79.85;101000.09;1086751;54;20053;-80
2021/12/13 04:45:18;;;;;;;10.63;8.32;;;;;;;6.67;80.34;101007.50;1086696;54;20098;-82
2021/12/13 04:46:21;;;;;;;11.65;8.07;;;;;;;6.66;80.35;101008.47;1087098;54;20038;-83
2021/12/13 04:47:31;;;;;;;13.18;9.77;;;;;;;6.60;80.35;101013.31;1087042;54;20045;-81
2021/12/13 04:48:34;;;;;;;;;;;;;;;6.50;80.93;101013.88;1087438;54;20042;-80
2021/12/13 04:49:42;;;;;;;14.85;9.57;;;;;;;6.54;80.83;101019.84;1087031;54;19952;-80
2021/12/13 04:50:51;;;;;;;12.95;10.05;;;;;;;6.54;80.77;101019.84;1086994;54;20094;-81
2021/12/13 04:51:56;;;;;;;11.70;8.40;;;;;;;6.59;80.42;101015.13;1087453;39;20501;-82
2021/12/13 04:53:01;;;;;;;13.80;8.98;;;;;;;6.60;80.64;101030.13;1087004;54;20686;-81
2021/12/13 04:54:05;;;;;;;12.02;9.32;;;;;;;6.64;80.34;101026.31;1087267;54;20022;-80
2021/12/13 04:55:14;;;;;;;10.75;8.55;;;;;;;6.76;80.22;101018.53;1087131;54;20062;-81
2021/12/13 04:56:20;;;;;;;9.43;7.30;;;;;;;6.83;80.03;101019.84;1087030;54;20038;-80
2021/12/13 04:57:25;;;;;;;9.10;7.22;;;;;;;6.88;79.73;101025.72;1086910;54;20065;-80
2021/12/13 04:58:30;;;;;;;10.88;7.40;;;;;;;6.93;79.63;101017.47;1087244;54;20639;-80
2021/12/13 04:59:37;;;;;;;9.90;6.35;;;;;;;6.95;79.18;101021.72;1086704;54;20083;-80
2021/12/13 05:00:44;;;;;;;9.25;7.60;;;;;;;6.89;79.53;101018.59;1086824;54;20675;-79
2021/12/13 05:01:50;;;;;;;10.43;7.78;;;;;;;6.85;79.82;101023.25;1087014;54;20038;-81
2021/12/13 05:02:58;;;;;;;11.77;8.48;;;;;;;6.77;79.84;101021.06;1086624;54;20042;-80
2021/12/13 05:04:03;;;;;;;13.38;9.45;;;;;;;6.71;80.13;101018.81;1086973;54;20095;-80
2021/12/13 05:05:09;;;;;;;12.02;9.18;;;;;;;6.78;80.07;101027.25;1088201;39;20439;-81
2021/12/13 05:06:14;;;;;;;12.52;8.93;;;;;;;6.82;79.91;101023.44;1087285;54;20562;-81
2021/12/13 05:07:20;;;;;;;12.48;8.93;;;;;;;6.91;79.53;101022.00;1087049;54;20038;-81
2021/12/13 05:08:22;;;;;;;11.10;8.05;;;;;;;6.96;79.66;101022.56;1089331;46;20034;-81
2021/12/13 05:09:28;;;;;;;11.02;7.53;;;;;;;7.01;79.48;101021.31;1087131;46;20049;-80
2021/12/13 05:10:30;;;;;;;9.52;7.22;;;;;;;7.05;79.26;101018.47;1087102;54;20038;-80
2021/12/13 05:11:39;;;;;;;9.52;6.15;;;;;;;7.10;78.98;101017.22;1087042;54;20030;-81
2021/12/13 05:12:59;;;;;;;8.20;6.13;;;;;;;7.12;78.95;101022.44;1087148;46;20073;-80
2021/12/13 05:14:08;;;;;;;8.73;6.55;;;;;;;7.14;78.86;101020.53;1086530;54;20068;-80
2021/12/13 05:15:14;;;;;;;8.15;5.50;;;;;;;7.18;78.88;101032.66;1086979;54;20552;-80
2021/12/13 05:16:25;;;;;;;8.43;6.28;;;;;;;7.14;78.92;101028.53;1086997;54;20043;-81
2021/12/13 05:17:35;;;;;;;7.90;5.38;;;;;;;7.18;78.92;101035.34;1087106;54;20640;-79
2021/12/13 05:18:43;;;;;;;8.45;6.05;;;;;;;7.15;78.56;101035.56;1087119;54;20041;-81
2021/12/13 05:19:51;;;;;;;9.65;6.35;;;;;;;7.17;78.67;101050.44;1087274;54;20648;-81
2021/12/13 05:21:00;;;;;;;8.60;6.38;;;;;;;7.17;78.51;101038.97;1087487;54;20058;-80
2021/12/13 05:22:09;;;;;;;7.55;5.95;;;;;;;7.14;78.61;101040.00;1087320;54;20030;-81
2021/12/13 05:23:15;;;;;;;9.48;5.57;;;;;;;7.17;78.75;101041.63;1087411;39;20328;-81
2021/12/13 05:24:22;;;;;;;9.27;6.68;;;;;;;7.22;78.34;101042.19;1087214;54;20041;-81
2021/12/13 05:25:36;;;;;;;7.70;5.90;;;;;;;7.22;78.49;101044.84;1087841;46;20054;-81
2021/12/13 05:26:49;;;;;;;7.65;5.60;;;;;;;7.24;78.67;101045.59;1087147;54;20043;-81